createdAt,value
2017-10-15T00:35:11.317Z,92.60
2017-10-15T00:37:39.552Z,92.80
2017-10-15T00:40:07.047Z,92.80
2017-10-15T00:42:35.287Z,93.20
2017-10-15T00:45:02.762Z,93.20
2017-10-15T00:47:30.252Z,93.30
2017-10-15T00:49:58.487Z,93.60
2017-10-15T00:52:25.991Z,93.50
2017-10-15T00:54:54.234Z,93.70
2017-10-15T00:57:21.708Z,93.70
2017-10-15T00:59:49.974Z,93.70
2017-10-15T01:02:17.478Z,93.70
2017-10-15T01:04:44.968Z,93.70
2017-10-15T01:07:12.444Z,93.70
2017-10-15T01:09:39.923Z,93.60
2017-10-15T01:12:08.179Z,93.60
2017-10-15T01:14:36.417Z,93.60
2017-10-15T01:17:03.917Z,93.60
2017-10-15T01:19:31.405Z,93.60
2017-10-15T01:21:59.640Z,93.50
2017-10-15T01:24:27.128Z,93.50
2017-10-15T01:26:55.369Z,93.60
2017-10-15T01:29:22.892Z,93.60
2017-10-15T01:31:50.381Z,93.60
2017-10-15T01:34:17.847Z,93.60
2017-10-15T01:36:45.331Z,93.50
2017-10-15T01:39:13.568Z,93.70
2017-10-15T01:41:41.055Z,93.70
2017-10-15T01:44:08.528Z,93.60
2017-10-15T01:46:36.771Z,93.70
2017-10-15T01:49:04.268Z,93.70
2017-10-15T01:51:32.517Z,93.70
2017-10-15T01:54:00.016Z,93.70
2017-10-15T01:56:27.499Z,93.70
2017-10-15T01:58:54.975Z,93.70
2017-10-15T02:01:22.468Z,93.60
2017-10-15T02:03:50.746Z,93.60
2017-10-15T02:06:19.059Z,93.60
2017-10-15T02:08:46.544Z,93.60
2017-10-15T02:11:14.016Z,93.60
2017-10-15T02:13:41.512Z,93.60
2017-10-15T02:16:09.751Z,93.80
2017-10-15T02:18:37.252Z,93.80
2017-10-15T02:21:04.732Z,93.80
2017-10-15T02:23:32.211Z,93.90
2017-10-15T02:25:59.703Z,93.90
2017-10-15T02:28:27.948Z,94.30
2017-10-15T02:30:55.444Z,94.00
2017-10-15T02:33:23.694Z,94.10
2017-10-15T02:35:51.175Z,94.10
2017-10-15T02:38:19.433Z,94.00
2017-10-15T02:40:46.907Z,94.00
2017-10-15T02:43:14.399Z,94.00
2017-10-15T02:45:41.871Z,94.00
2017-10-15T02:48:09.347Z,94.00
2017-10-15T02:50:36.844Z,94.00
2017-10-15T02:53:05.092Z,94.00
2017-10-15T02:55:32.595Z,94.00
2017-10-15T02:58:00.833Z,94.00
2017-10-15T03:00:28.310Z,94.00
2017-10-15T03:02:55.797Z,94.00
2017-10-15T03:05:23.271Z,93.90
2017-10-15T03:07:50.775Z,93.90
2017-10-15T03:10:18.251Z,93.90
2017-10-15T03:12:46.489Z,93.80
2017-10-15T03:15:13.981Z,93.80
2017-10-15T03:17:42.220Z,93.80
2017-10-15T03:20:09.720Z,93.80
2017-10-15T03:22:37.964Z,93.70
2017-10-15T03:25:05.441Z,93.70
2017-10-15T03:27:32.929Z,93.70
2017-10-15T03:30:00.400Z,93.60
2017-10-15T03:32:27.903Z,93.60
2017-10-15T03:34:55.388Z,93.50
2017-10-15T03:37:23.627Z,93.60
2017-10-15T03:39:51.132Z,93.60
2017-10-15T03:42:19.372Z,93.60
2017-10-15T03:44:46.957Z,93.60
2017-10-15T03:47:15.204Z,93.60
2017-10-15T03:49:42.690Z,93.50
2017-10-15T03:52:10.955Z,93.60
2017-10-15T03:54:38.433Z,93.60
2017-10-15T03:57:06.696Z,93.60
2017-10-15T03:59:34.941Z,93.60
2017-10-15T04:02:02.419Z,93.60
2017-10-15T04:04:29.933Z,93.60
2017-10-15T04:06:57.414Z,93.60
2017-10-15T04:09:25.012Z,93.60
2017-10-15T04:11:53.252Z,93.60
2017-10-15T04:14:20.735Z,93.60
2017-10-15T04:16:48.548Z,93.60
2017-10-15T04:19:16.032Z,93.60
2017-10-15T04:21:43.536Z,93.60
2017-10-15T04:24:11.775Z,93.70
2017-10-15T04:26:39.244Z,93.70
2017-10-15T04:29:06.757Z,93.80
2017-10-15T04:31:34.244Z,93.80
2017-10-15T04:34:01.743Z,93.80
2017-10-15T04:36:30.016Z,93.80
2017-10-15T04:38:58.263Z,93.80
2017-10-15T04:41:25.762Z,93.80
2017-10-15T04:43:54.004Z,93.80
2017-10-15T04:46:23.008Z,93.90
2017-10-15T04:48:50.483Z,93.80
2017-10-15T04:51:18.729Z,93.90
2017-10-15T04:53:46.224Z,93.90
2017-10-15T04:56:14.476Z,94.00
2017-10-15T04:58:41.982Z,94.00
2017-10-15T05:01:09.459Z,93.90
2017-10-15T05:03:36.939Z,93.90
2017-10-15T05:06:04.439Z,93.90
2017-10-15T05:08:32.679Z,93.90
2017-10-15T05:11:00.176Z,93.90
2017-10-15T05:13:27.663Z,94.00
2017-10-15T05:15:55.152Z,94.00
2017-10-15T05:18:22.647Z,94.00
2017-10-15T05:20:50.893Z,94.10
2017-10-15T05:23:18.402Z,94.10
2017-10-15T05:25:45.888Z,94.10
2017-10-15T05:28:13.370Z,94.10
2017-10-15T05:30:40.865Z,94.10
2017-10-15T05:33:08.347Z,94.20
2017-10-15T05:35:35.860Z,94.20
2017-10-15T05:38:04.107Z,94.30
2017-10-15T05:40:31.586Z,94.20
2017-10-15T05:42:59.075Z,94.30
2017-10-15T05:45:26.556Z,94.40
2017-10-15T05:47:54.063Z,94.30
2017-10-15T05:50:22.322Z,94.30
2017-10-15T05:52:49.807Z,94.30
2017-10-15T05:55:18.069Z,94.30
2017-10-15T05:57:45.612Z,94.20
2017-10-15T06:00:13.105Z,94.20
2017-10-15T06:02:41.352Z,94.20
2017-10-15T06:05:08.835Z,94.20
2017-10-15T06:07:37.091Z,94.30
2017-10-15T06:10:04.568Z,94.20
2017-10-15T06:12:32.843Z,94.20
2017-10-15T06:15:01.094Z,94.30
2017-10-15T06:17:28.588Z,94.30
2017-10-15T06:19:56.849Z,94.20
2017-10-15T06:22:24.327Z,94.20
2017-10-15T06:24:52.623Z,94.00
2017-10-15T06:27:20.111Z,94.00
2017-10-15T06:29:47.591Z,94.00
2017-10-15T06:32:15.097Z,93.90
2017-10-15T06:34:42.580Z,93.80
2017-10-15T06:37:10.094Z,93.70
2017-10-15T06:39:38.352Z,93.70
2017-10-15T06:42:05.830Z,93.70
2017-10-15T06:44:34.100Z,93.60
2017-10-15T06:47:02.348Z,93.60
2017-10-15T06:49:29.849Z,93.60
2017-10-15T06:51:58.100Z,93.50
2017-10-15T06:54:26.349Z,93.40
2017-10-15T06:56:53.851Z,93.40
2017-10-15T06:59:22.102Z,93.40
2017-10-15T07:01:49.595Z,93.40
2017-10-15T07:04:17.078Z,93.30
2017-10-15T07:06:44.556Z,93.30
2017-10-15T07:09:12.067Z,93.20
2017-10-15T07:11:40.304Z,93.20
2017-10-15T07:14:07.807Z,93.20
2017-10-15T07:16:35.288Z,93.10
2017-10-15T07:19:02.763Z,93.10
2017-10-15T07:21:30.260Z,93.00
2017-10-15T07:23:58.504Z,92.90
2017-10-15T07:26:26.016Z,92.90
2017-10-15T07:28:53.497Z,92.80
2017-10-15T07:31:20.980Z,92.80
2017-10-15T07:33:48.483Z,92.70
2017-10-15T07:36:16.732Z,92.50
2017-10-15T07:38:44.240Z,92.50
2017-10-15T07:41:11.729Z,92.50
2017-10-15T07:43:39.223Z,92.40
2017-10-15T07:46:07.482Z,92.20
2017-10-15T07:48:34.968Z,92.20
2017-10-15T07:51:03.238Z,92.20
2017-10-15T07:53:31.493Z,92.10
2017-10-15T07:55:58.971Z,92.10
2017-10-15T07:58:27.228Z,91.90
2017-10-15T08:00:54.706Z,91.80
2017-10-15T08:03:22.988Z,91.70
2017-10-15T08:05:51.247Z,91.70
2017-10-15T08:08:19.497Z,91.60
2017-10-15T08:10:46.995Z,91.50
2017-10-15T08:13:15.239Z,91.30
2017-10-15T08:15:42.739Z,91.20
2017-10-15T08:18:10.220Z,91.20
2017-10-15T08:20:37.717Z,91.10
2017-10-15T08:23:05.988Z,90.70
2017-10-15T08:25:33.519Z,90.70
2017-10-15T08:28:01.040Z,90.60
2017-10-15T08:30:29.416Z,90.30
2017-10-15T08:32:57.688Z,90.20
2017-10-15T08:35:25.952Z,90.00
2017-10-15T08:37:54.194Z,90.00
2017-10-15T08:40:21.696Z,90.00
2017-10-15T08:42:49.984Z,89.50
2017-10-15T08:45:18.251Z,89.40
2017-10-15T08:47:45.725Z,89.20
2017-10-15T08:50:13.985Z,88.90
2017-10-15T08:52:42.263Z,88.80
2017-10-15T08:55:09.790Z,88.80
2017-10-15T08:57:37.280Z,88.20
2017-10-15T09:00:05.583Z,88.10
2017-10-15T09:02:33.127Z,87.90
2017-10-15T09:05:01.367Z,87.10
2017-10-15T09:07:28.851Z,87.10
2017-10-15T09:09:57.112Z,86.60
2017-10-15T09:12:24.600Z,86.50
2017-10-15T09:14:52.879Z,86.50
2017-10-15T09:17:21.136Z,86.40
2017-10-15T09:19:48.637Z,86.30
2017-10-15T09:22:16.107Z,86.20
2017-10-15T09:24:43.589Z,85.50
2017-10-15T09:27:11.076Z,85.30
2017-10-15T09:29:39.320Z,84.70
2017-10-15T09:32:06.804Z,84.70
2017-10-15T09:34:34.284Z,84.30
2017-10-15T09:37:02.548Z,83.80
2017-10-15T09:39:30.784Z,83.90
2017-10-15T09:41:58.299Z,83.60
2017-10-15T09:44:26.556Z,82.70
2017-10-15T09:46:54.799Z,82.30
2017-10-15T09:49:22.295Z,82.30
2017-10-15T09:51:50.527Z,81.80
2017-10-15T09:54:18.043Z,81.80
2017-10-15T09:56:46.295Z,81.30
2017-10-15T09:59:13.807Z,81.20
2017-10-15T10:01:41.296Z,81.20
2017-10-15T10:04:08.779Z,81.10
2017-10-15T10:06:37.040Z,80.90
2017-10-15T10:09:04.522Z,80.80
2017-10-15T10:11:32.910Z,80.30
2017-10-15T10:14:00.403Z,80.10
2017-10-15T10:16:27.916Z,80.30
2017-10-15T10:18:56.237Z,79.40
2017-10-15T10:21:23.744Z,79.20
2017-10-15T10:23:52.063Z,79.60
2017-10-15T10:26:19.624Z,79.50
2017-10-15T10:28:47.113Z,79.00
2017-10-15T10:31:14.609Z,78.40
2017-10-15T10:33:42.858Z,77.40
2017-10-15T10:36:10.373Z,77.40
2017-10-15T10:38:37.848Z,77.50
2017-10-15T10:41:05.320Z,76.90
2017-10-15T10:43:32.824Z,76.90
2017-10-15T10:46:01.064Z,76.60
2017-10-15T10:48:28.556Z,76.60
2017-10-15T10:50:56.799Z,76.50
2017-10-15T10:53:24.315Z,76.40
2017-10-15T10:55:51.816Z,75.50
2017-10-15T10:58:19.383Z,75.00
2017-10-15T11:00:46.880Z,74.90
2017-10-15T11:03:14.375Z,74.40
2017-10-15T11:05:41.857Z,74.30
2017-10-15T11:08:09.332Z,73.90
2017-10-15T11:10:37.615Z,73.80
2017-10-15T11:13:05.858Z,73.40
2017-10-15T11:15:33.343Z,73.40
2017-10-15T11:18:01.600Z,72.80
2017-10-15T11:20:29.084Z,72.80
2017-10-15T11:22:57.335Z,72.50
2017-10-15T11:25:24.807Z,72.50
2017-10-15T11:27:52.311Z,72.40
2017-10-15T11:30:19.803Z,73.00
2017-10-15T11:32:47.283Z,72.40
2017-10-15T11:35:15.548Z,71.90
2017-10-15T11:37:43.036Z,71.80
2017-10-15T11:40:11.303Z,71.50
2017-10-15T11:42:39.544Z,71.30
2017-10-15T11:45:07.016Z,71.20
2017-10-15T11:47:34.512Z,71.00
2017-10-15T11:50:02.006Z,70.80
2017-10-15T11:52:29.487Z,70.70
2017-10-15T11:54:56.960Z,70.20
2017-10-15T11:57:24.460Z,70.00
2017-10-15T11:59:51.946Z,69.90
2017-10-15T12:02:19.424Z,69.30
2017-10-15T12:04:46.936Z,69.80
2017-10-15T12:07:14.410Z,69.30
2017-10-15T12:09:41.899Z,69.30
2017-10-15T12:12:09.398Z,68.90
2017-10-15T12:14:36.896Z,70.00
2017-10-15T12:17:04.380Z,69.40
2017-10-15T12:19:31.864Z,69.80
2017-10-15T12:22:00.125Z,68.40
2017-10-15T12:24:28.442Z,68.30
2017-10-15T12:26:55.940Z,68.20
2017-10-15T12:29:23.424Z,67.50
2017-10-15T12:31:51.685Z,67.20
2017-10-15T12:34:19.183Z,67.20
2017-10-15T12:36:46.664Z,67.40
2017-10-15T12:39:14.172Z,67.80
2017-10-15T12:41:42.415Z,66.80
2017-10-15T12:44:09.907Z,66.60
2017-10-15T12:46:38.163Z,65.90
2017-10-15T12:49:05.668Z,65.10
2017-10-15T12:51:33.156Z,64.90
2017-10-15T12:54:00.627Z,63.70
2017-10-15T17:23:35.232Z,83.20
2017-10-15T17:26:03.487Z,83.70
2017-10-15T17:28:31.334Z,83.70
2017-10-15T17:30:58.875Z,83.90
2017-10-15T17:33:26.356Z,84.20
2017-10-15T17:35:53.848Z,84.20
2017-10-15T17:38:22.382Z,84.50
2017-10-15T17:40:49.875Z,84.40
2017-10-15T17:43:17.427Z,84.60
2017-10-15T17:45:45.208Z,84.70
2017-10-15T17:48:12.716Z,84.80
2017-10-15T17:50:40.227Z,84.50
2017-10-15T17:53:07.709Z,84.80
2017-10-15T17:55:35.981Z,84.90
2017-10-15T17:58:04.235Z,84.80
2017-10-15T18:00:31.727Z,84.70
2017-10-15T18:02:59.972Z,85.10
2017-10-15T18:05:27.476Z,85.10
2017-10-15T18:07:54.955Z,85.00
2017-10-15T18:10:22.473Z,85.20
2017-10-15T18:12:50.724Z,84.10
2017-10-15T18:15:18.204Z,84.00
2017-10-15T18:17:45.721Z,83.70
2017-10-15T18:20:13.205Z,83.10
2017-10-15T18:22:41.463Z,82.70
2017-10-15T18:25:08.948Z,82.60
2017-10-15T18:27:37.353Z,82.30
2017-10-15T18:30:04.864Z,82.30
2017-10-15T18:32:32.365Z,82.60
2017-10-15T18:34:59.876Z,82.50
2017-10-15T18:37:27.359Z,82.50
2017-10-15T18:39:55.615Z,83.10
2017-10-15T18:42:23.119Z,83.10
2017-10-15T18:44:50.629Z,82.60
2017-10-15T18:47:18.115Z,82.90
2017-10-15T18:49:46.363Z,82.90
2017-10-15T18:52:13.868Z,82.80
2017-10-15T18:54:41.347Z,82.60
2017-10-15T18:57:08.844Z,82.90
2017-10-15T18:59:36.354Z,82.90
2017-10-15T19:02:03.852Z,83.00
2017-10-15T19:04:31.345Z,82.70
2017-10-15T19:06:59.597Z,83.20
2017-10-15T19:09:27.095Z,83.10
2017-10-15T19:11:54.598Z,82.50
2017-10-15T19:14:22.125Z,82.70
2017-10-15T19:16:49.632Z,82.60
2017-10-15T19:19:17.146Z,82.60
2017-10-15T19:21:44.640Z,82.60
2017-10-15T19:24:12.125Z,82.80
2017-10-15T19:26:40.442Z,82.90
2017-10-15T19:29:07.929Z,82.90
2017-10-15T19:31:35.435Z,83.20
2017-10-15T19:34:03.682Z,83.10
2017-10-15T19:36:31.264Z,83.10
2017-10-15T19:38:59.518Z,83.30
2017-10-15T19:41:27.804Z,83.20
2017-10-15T19:43:55.308Z,83.20
2017-10-15T19:46:22.872Z,83.30
2017-10-15T19:48:50.364Z,83.20
2017-10-15T19:51:17.843Z,83.40
2017-10-15T19:53:45.337Z,83.50
2017-10-15T19:56:12.847Z,83.70
2017-10-15T19:58:40.377Z,83.80
2017-10-15T20:01:07.864Z,84.20
2017-10-15T20:03:36.200Z,84.50
2017-10-15T20:06:03.720Z,84.50
2017-10-15T20:08:31.995Z,84.90
2017-10-15T20:11:00.257Z,85.20
2017-10-15T20:13:27.731Z,85.20
2017-10-15T20:15:56.000Z,85.40
2017-10-15T20:18:23.513Z,85.40
2017-10-15T20:20:50.999Z,85.70
2017-10-15T20:23:18.496Z,85.40
2017-10-15T20:25:46.763Z,85.80
2017-10-15T20:28:15.027Z,86.10
2017-10-15T20:30:42.560Z,86.10
2017-10-15T20:33:10.518Z,86.20
2017-10-15T20:35:37.999Z,86.40
2017-10-15T20:38:05.483Z,86.50
2017-10-15T20:40:33.765Z,86.80
2017-10-15T20:43:02.100Z,87.00
2017-10-15T20:45:29.651Z,87.00
2017-10-15T20:47:57.163Z,87.10
2017-10-15T20:50:25.424Z,87.30
2017-10-15T20:52:52.931Z,87.30
2017-10-15T20:55:20.416Z,87.40
2017-10-15T20:57:47.925Z,87.70
2017-10-15T21:00:15.417Z,87.70
2017-10-15T21:02:42.922Z,87.90
2017-10-15T21:05:11.201Z,88.30
2017-10-15T21:07:39.459Z,88.80
2017-10-15T21:10:06.960Z,88.70
2017-10-15T21:12:34.757Z,88.90
2017-10-15T21:15:02.267Z,89.00
2017-10-15T21:17:30.524Z,89.60
2017-10-15T21:19:59.596Z,89.80
2017-10-15T21:22:27.102Z,89.60
2017-10-15T21:24:55.351Z,90.00
2017-10-15T21:27:22.843Z,90.00
2017-10-15T21:29:51.101Z,90.10
2017-10-15T21:32:19.414Z,90.20
2017-10-15T21:34:46.894Z,90.20
2017-10-15T21:37:14.376Z,90.30
2017-10-15T21:39:41.872Z,90.30
2017-10-15T21:42:10.199Z,90.40
2017-10-15T21:44:37.702Z,90.40
2017-10-15T21:47:05.961Z,90.70
2017-10-15T21:49:34.252Z,90.70
2017-10-15T21:52:02.540Z,90.80
2017-10-15T21:54:30.016Z,90.70
2017-10-15T21:56:57.520Z,90.80
2017-10-15T21:59:25.011Z,90.90
2017-10-15T22:01:53.272Z,91.00
2017-10-15T22:04:20.752Z,91.00
2017-10-15T22:06:49.017Z,91.10
2017-10-15T22:09:17.267Z,91.10
2017-10-15T22:11:44.754Z,91.00
2017-10-15T22:14:13.015Z,91.20
2017-10-15T22:16:40.516Z,91.10
2017-10-15T22:19:08.011Z,91.20
2017-10-15T22:21:41.060Z,91.20
2017-10-15T22:24:08.559Z,91.30
2017-10-15T22:26:36.040Z,91.40
2017-10-15T22:29:04.307Z,91.40
2017-10-15T22:31:31.796Z,91.40
2017-10-15T22:34:00.053Z,91.30
2017-10-15T22:36:28.319Z,91.30
2017-10-15T22:38:55.809Z,91.30
2017-10-15T22:41:23.352Z,91.20
2017-10-15T22:43:51.599Z,91.30
2017-10-15T22:46:19.193Z,91.20
2017-10-15T22:48:47.445Z,91.40
2017-10-15T22:51:14.937Z,91.40
2017-10-15T22:53:43.200Z,91.60
2017-10-15T22:56:11.447Z,91.70
2017-10-15T22:58:38.951Z,91.70
2017-10-15T23:01:07.192Z,91.80
2017-10-15T23:03:34.692Z,91.80
2017-10-15T23:06:02.174Z,91.80
2017-10-15T23:09:28.435Z,91.80
2017-10-15T23:11:55.907Z,91.80
2017-10-15T23:14:23.399Z,91.90
2017-10-15T23:16:50.888Z,91.90
2017-10-15T23:19:18.380Z,91.90
2017-10-15T23:21:46.627Z,91.90
2017-10-15T23:24:14.118Z,91.90
2017-10-15T23:26:41.624Z,91.90
2017-10-15T23:29:09.112Z,91.80
2017-10-15T23:31:36.612Z,91.90
2017-10-15T23:34:04.908Z,91.90
2017-10-15T23:36:32.417Z,91.80
2017-10-15T23:38:59.931Z,91.80
2017-10-15T23:41:28.167Z,91.90
2017-10-15T23:43:55.669Z,91.80
2017-10-15T23:46:23.143Z,91.90
2017-10-15T23:48:50.663Z,91.90
2017-10-15T23:51:18.931Z,91.80
2017-10-15T23:53:47.179Z,91.80
2017-10-15T23:56:14.676Z,91.80
2017-10-15T23:58:43.021Z,91.90
